createdAt,value
2022-08-07T00:00:28.175Z,7.40
2022-08-07T00:03:09.384Z,10.90
2022-08-07T00:05:38.200Z,7.10
2022-08-07T00:08:07.880Z,8.00
2022-08-07T00:10:47.868Z,9.00
2022-08-07T00:13:25.594Z,13.10
2022-08-07T00:15:55.666Z,9.00
2022-08-07T00:18:27.215Z,7.10
2022-08-07T00:21:03.444Z,9.70
2022-08-07T00:23:40.309Z,6.30
2022-08-07T00:26:13.211Z,6.80
2022-08-07T00:28:55.626Z,6.80
2022-08-07T00:31:37.776Z,7.10
2022-08-07T00:34:10.681Z,7.50
2022-08-07T00:36:42.911Z,6.80
2022-08-07T00:39:16.529Z,6.80
2022-08-07T00:42:01.260Z,8.10
2022-08-07T00:44:30.962Z,8.50
2022-08-07T00:47:03.069Z,7.30
2022-08-07T00:50:19.510Z,5.90
2022-08-07T00:52:23.014Z,11.40
2022-08-07T00:54:54.293Z,7.80
2022-08-07T00:57:25.736Z,7.70
2022-08-07T00:59:54.954Z,7.70
2022-08-07T01:02:28.442Z,10.10
2022-08-07T01:04:59.181Z,9.00
2022-08-07T01:07:29.543Z,11.60
2022-08-07T01:10:06.473Z,8.20
2022-08-07T01:12:53.434Z,7.70
2022-08-07T01:15:35.774Z,9.40
2022-08-07T01:18:16.976Z,9.80
2022-08-07T01:20:59.195Z,10.50
2022-08-07T01:23:34.731Z,9.80
2022-08-07T01:26:12.136Z,8.10
2022-08-07T01:28:48.232Z,10.80
2022-08-07T01:31:41.592Z,8.20
2022-08-07T01:34:12.390Z,9.20
2022-08-07T01:36:44.161Z,8.70
2022-08-07T01:39:17.958Z,9.30
2022-08-07T01:42:37.018Z,8.30
2022-08-07T01:44:44.347Z,7.30
2022-08-07T01:48:19.786Z,7.30
2022-08-07T01:50:06.951Z,7.20
2022-08-07T01:52:49.407Z,7.50
2022-08-07T01:55:33.515Z,11.70
2022-08-07T01:58:29.537Z,11.00
2022-08-07T02:01:10.295Z,9.20
2022-08-07T02:04:01.351Z,9.10
2022-08-07T02:06:34.362Z,8.50
2022-08-07T02:09:09.405Z,10.60
2022-08-07T02:12:03.590Z,12.60
2022-08-07T02:14:41.134Z,7.10
2022-08-07T02:17:27.672Z,10.70
2022-08-07T02:20:04.818Z,7.30
2022-08-07T02:22:41.400Z,10.20
2022-08-07T02:25:17.315Z,11.60
2022-08-07T02:27:56.915Z,8.80
2022-08-07T02:30:26.755Z,8.30
2022-08-07T02:33:00.954Z,11.40
2022-08-07T02:36:30.671Z,7.10
2022-08-07T02:38:35.879Z,7.30
2022-08-07T02:41:06.132Z,10.00
2022-08-07T02:43:39.546Z,9.30
2022-08-07T02:46:11.142Z,10.60
2022-08-07T02:48:40.391Z,10.30
2022-08-07T02:51:42.107Z,9.70
2022-08-07T02:54:16.967Z,7.80
2022-08-07T02:56:48.203Z,9.00
2022-08-07T02:59:24.130Z,7.10
2022-08-07T03:02:02.156Z,7.50
2022-08-07T03:04:32.225Z,12.10
2022-08-07T03:07:03.393Z,8.50
2022-08-07T03:09:42.108Z,8.70
2022-08-07T03:12:22.570Z,8.40
2022-08-07T03:15:07.462Z,8.00
2022-08-07T03:17:53.608Z,10.20
2022-08-07T03:20:25.717Z,8.40
2022-08-07T03:22:55.754Z,11.10
2022-08-07T03:25:40.180Z,9.40
2022-08-07T03:28:37.183Z,10.10
2022-08-07T03:31:18.923Z,7.20
2022-08-07T03:33:58.373Z,7.10
2022-08-07T03:36:30.874Z,9.00
2022-08-07T03:39:05.432Z,8.60
2022-08-07T03:41:42.396Z,7.70
2022-08-07T03:44:17.093Z,7.20
2022-08-07T03:47:11.274Z,9.20
2022-08-07T03:49:40.734Z,8.70
2022-08-07T03:52:22.362Z,7.40
2022-08-07T03:55:03.311Z,7.30
2022-08-07T03:58:17.978Z,9.00
2022-08-07T04:00:33.518Z,7.70
2022-08-07T04:03:03.788Z,10.60
2022-08-07T04:05:40.455Z,10.50
2022-08-07T04:08:16.286Z,8.90
2022-08-07T04:10:54.412Z,12.40
2022-08-07T04:14:10.775Z,7.60
2022-08-07T04:16:32.435Z,8.40
2022-08-07T04:19:12.583Z,9.80
2022-08-07T04:21:59.629Z,12.80
2022-08-07T04:24:39.162Z,10.60
2022-08-07T04:27:15.096Z,8.30
2022-08-07T04:30:01.665Z,9.30
2022-08-07T04:32:57.832Z,8.50
2022-08-07T04:35:34.983Z,12.60
2022-08-07T04:38:07.569Z,11.70
2022-08-07T04:40:51.493Z,9.60
2022-08-07T04:44:10.129Z,12.20
2022-08-07T04:46:34.499Z,10.30
2022-08-07T04:49:17.686Z,8.60
2022-08-07T04:52:12.737Z,11.20
2022-08-07T04:54:50.517Z,9.90
2022-08-07T04:58:12.437Z,10.10
2022-08-07T05:00:52.108Z,11.00
2022-08-07T05:03:59.826Z,10.10
2022-08-07T05:06:20.395Z,10.80
2022-08-07T05:09:11.022Z,12.20
2022-08-07T05:11:56.938Z,13.50
2022-08-07T05:14:52.167Z,9.10
2022-08-07T05:17:53.080Z,11.20
2022-08-07T05:20:21.595Z,12.20
2022-08-07T05:22:55.266Z,13.60
2022-08-07T05:26:10.457Z,14.00
2022-08-07T05:28:22.715Z,13.00
2022-08-07T05:30:55.687Z,9.80
2022-08-07T05:33:28.667Z,12.80
2022-08-07T05:35:59.404Z,12.10
2022-08-07T05:38:58.158Z,16.60
2022-08-07T05:41:24.116Z,14.80
2022-08-07T05:44:14.000Z,11.20
2022-08-07T05:46:51.477Z,13.60
2022-08-07T05:49:24.522Z,11.70
2022-08-07T05:51:55.889Z,12.50
2022-08-07T05:54:30.552Z,13.10
2022-08-07T05:57:03.469Z,12.70
2022-08-07T05:59:46.541Z,19.80
2022-08-07T06:02:30.694Z,9.40
2022-08-07T06:05:11.008Z,10.50
2022-08-07T06:08:29.404Z,12.50
2022-08-07T06:10:36.091Z,9.70
2022-08-07T06:13:05.978Z,9.10
2022-08-07T06:15:43.478Z,15.80
2022-08-07T06:18:21.667Z,17.60
2022-08-07T06:22:16.443Z,13.60
2022-08-07T06:24:37.178Z,11.80
2022-08-07T06:26:30.298Z,15.40
2022-08-07T06:29:01.177Z,13.00
2022-08-07T06:31:46.554Z,12.10
2022-08-07T06:34:28.040Z,11.20
2022-08-07T06:36:59.559Z,11.60
2022-08-07T06:40:16.058Z,10.60
2022-08-07T06:42:35.227Z,10.20
2022-08-07T06:45:25.287Z,12.40
2022-08-07T06:47:59.523Z,7.80
2022-08-07T06:50:50.081Z,7.20
2022-08-07T06:55:27.357Z,9.10
2022-08-07T06:56:15.036Z,5.90
2022-08-07T07:00:11.911Z,12.30
2022-08-07T07:01:43.922Z,8.60
2022-08-07T07:04:28.435Z,6.90
2022-08-07T07:07:18.916Z,12.60
2022-08-07T07:09:52.408Z,10.40
2022-08-07T07:12:37.720Z,7.50
2022-08-07T07:15:32.426Z,9.40
2022-08-07T07:18:13.973Z,8.70
2022-08-07T07:20:57.770Z,6.10
2022-08-07T07:24:09.953Z,7.10
2022-08-07T07:26:34.280Z,5.20
2022-08-07T07:29:38.864Z,6.60
2022-08-07T07:32:08.378Z,8.20
2022-08-07T07:34:42.158Z,7.70
2022-08-07T07:37:21.572Z,8.90
2022-08-07T07:40:14.812Z,9.80
2022-08-07T07:42:51.091Z,8.30
2022-08-07T07:46:38.503Z,7.30
2022-08-07T07:48:34.907Z,8.80
2022-08-07T07:51:07.775Z,7.90
2022-08-07T07:53:52.674Z,4.90
2022-08-07T07:56:30.409Z,4.90
2022-08-07T07:59:02.109Z,4.60
2022-08-07T08:02:03.893Z,7.70
2022-08-07T08:04:25.664Z,11.00
2022-08-07T08:06:56.265Z,2.90
2022-08-07T08:09:29.921Z,3.10
2022-08-07T08:12:03.727Z,5.70
2022-08-07T08:14:34.341Z,6.30
2022-08-07T08:17:56.521Z,4.70
2022-08-07T08:20:19.384Z,3.90
2022-08-07T08:23:12.848Z,4.80
2022-08-07T08:26:06.947Z,8.40
2022-08-07T08:28:43.429Z,5.90
2022-08-07T08:31:22.776Z,3.30
2022-08-07T08:34:10.416Z,3.50
2022-08-07T08:39:15.279Z,3.70
2022-08-07T08:41:57.403Z,5.60
2022-08-07T08:44:44.273Z,6.90
2022-08-07T08:47:29.663Z,4.50
2022-08-07T08:50:28.359Z,2.50
2022-08-07T08:53:21.892Z,6.60
2022-08-07T08:55:58.935Z,3.70
2022-08-07T08:58:37.018Z,8.60
2022-08-07T09:01:29.853Z,4.60
2022-08-07T09:04:26.025Z,3.70
2022-08-07T09:07:27.211Z,3.60
2022-08-07T09:10:03.420Z,5.00
2022-08-07T09:12:53.674Z,3.20
2022-08-07T09:16:24.389Z,5.30
2022-08-07T09:18:58.583Z,5.90
2022-08-07T09:25:00.672Z,5.40
2022-08-07T09:27:31.311Z,6.00
2022-08-07T09:30:20.761Z,4.50
2022-08-07T09:33:41.180Z,7.20
2022-08-07T09:36:23.014Z,5.70
2022-08-07T09:39:53.739Z,4.30
2022-08-07T09:42:51.378Z,4.40
2022-08-07T09:47:27.346Z,5.10
2022-08-07T09:48:56.137Z,4.10
2022-08-07T09:52:15.509Z,5.60
2022-08-07T09:54:49.617Z,4.50
2022-08-07T09:57:46.715Z,3.10
2022-08-07T10:00:20.599Z,5.00
2022-08-07T10:04:05.463Z,4.20
2022-08-07T10:06:27.489Z,5.70
2022-08-07T10:09:11.147Z,3.40
2022-08-07T10:12:01.941Z,4.70
2022-08-07T10:14:55.429Z,2.40
2022-08-07T10:18:02.682Z,3.90
2022-08-07T10:20:57.803Z,6.40
2022-08-07T10:24:05.956Z,2.10
2022-08-07T10:26:53.053Z,3.50
2022-08-07T10:29:51.806Z,3.20
2022-08-07T10:32:36.417Z,3.40
2022-08-07T10:36:11.147Z,2.10
2022-08-07T10:38:59.204Z,2.80
2022-08-07T10:41:46.341Z,4.50
2022-08-07T10:44:37.970Z,3.20
2022-08-07T10:47:59.917Z,3.40
2022-08-07T10:50:42.579Z,4.90
2022-08-07T10:54:00.348Z,5.10
2022-08-07T10:56:34.438Z,5.50
2022-08-07T11:02:33.513Z,2.80
2022-08-07T11:05:49.143Z,9.60
2022-08-07T11:08:38.955Z,4.10
2022-08-07T11:11:35.624Z,1.50
2022-08-07T11:14:46.243Z,2.70
2022-08-07T11:17:43.440Z,2.60
2022-08-07T11:20:24.543Z,3.80
2022-08-07T11:23:36.495Z,3.10
2022-08-07T11:26:25.694Z,4.10
2022-08-07T11:29:42.743Z,5.30
2022-08-07T11:32:25.923Z,5.70
2022-08-07T11:34:58.891Z,3.70
2022-08-07T11:37:58.372Z,4.60
2022-08-07T11:40:53.923Z,2.50
2022-08-07T11:43:54.754Z,3.20
2022-08-07T11:46:28.141Z,7.50
2022-08-07T11:49:50.750Z,5.70
2022-08-07T11:52:37.718Z,5.80
2022-08-07T11:55:18.842Z,6.80
2022-08-07T11:58:34.098Z,1.80
2022-08-07T12:01:59.246Z,2.60
2022-08-07T12:05:02.208Z,3.20
2022-08-07T12:07:39.016Z,5.80
2022-08-07T12:10:41.979Z,3.90
2022-08-07T12:13:36.623Z,6.30
2022-08-07T12:16:30.344Z,4.00
2022-08-07T12:19:05.065Z,2.90
2022-08-07T12:22:36.313Z,3.60
2022-08-07T12:25:17.923Z,2.20
2022-08-07T12:28:11.473Z,13.30
2022-08-07T12:30:46.683Z,3.10
2022-08-07T12:33:28.142Z,5.00
2022-08-07T12:36:02.560Z,3.30
2022-08-07T12:38:42.501Z,2.20
2022-08-07T12:41:16.647Z,4.30
2022-08-07T12:44:02.137Z,5.60
2022-08-07T12:46:39.674Z,2.90
2022-08-07T12:49:48.494Z,3.70
2022-08-07T12:52:52.216Z,3.80
2022-08-07T12:55:41.288Z,6.20
2022-08-07T12:58:28.236Z,3.60
2022-08-07T13:01:32.688Z,2.20
2022-08-07T13:04:34.030Z,4.90
2022-08-07T13:08:11.522Z,3.70
2022-08-07T13:10:39.451Z,3.10
2022-08-07T13:13:48.486Z,3.00
2022-08-07T13:16:50.759Z,3.60
2022-08-07T13:19:51.774Z,5.70
2022-08-07T13:22:34.459Z,3.50
2022-08-07T13:25:09.714Z,1.70
2022-08-07T13:28:12.359Z,5.60
2022-08-07T13:31:02.090Z,1.80
2022-08-07T13:34:34.187Z,2.90
2022-08-07T13:36:45.420Z,2.90
2022-08-07T13:40:33.181Z,3.40
2022-08-07T13:42:39.798Z,4.10
2022-08-07T13:46:06.751Z,1.40
2022-08-07T13:48:05.499Z,5.30
2022-08-07T13:50:44.801Z,2.20
2022-08-07T13:53:55.350Z,3.80
2022-08-07T13:56:35.375Z,5.50
2022-08-07T13:59:27.081Z,3.90
2022-08-07T14:02:10.256Z,3.30
2022-08-07T14:04:54.387Z,3.10
2022-08-07T14:07:34.178Z,2.20
2022-08-07T14:10:21.590Z,3.60
2022-08-07T14:13:03.738Z,4.50
2022-08-07T14:15:53.366Z,3.80
2022-08-07T14:18:33.450Z,4.10
2022-08-07T14:21:08.163Z,3.30
2022-08-07T14:24:00.776Z,1.20
2022-08-07T14:30:05.462Z,3.10
2022-08-07T14:32:30.332Z,2.80
2022-08-07T14:35:01.684Z,4.40
2022-08-07T14:37:39.020Z,2.70
2022-08-07T14:40:26.637Z,3.50
2022-08-07T14:43:57.300Z,4.60
2022-08-07T14:46:07.229Z,5.50
2022-08-07T14:48:38.485Z,5.80
2022-08-07T14:51:19.587Z,4.50
2022-08-07T14:54:09.681Z,2.60
2022-08-07T14:56:42.968Z,3.20
2022-08-07T15:00:03.043Z,3.90
2022-08-07T15:02:31.841Z,3.70
2022-08-07T15:05:02.224Z,3.90
2022-08-07T15:07:47.394Z,2.30
2022-08-07T15:10:26.849Z,3.60
2022-08-07T15:13:11.422Z,2.20
2022-08-07T15:15:52.756Z,2.60
2022-08-07T15:18:33.753Z,3.60
2022-08-07T15:21:41.194Z,7.00
2022-08-07T15:25:13.028Z,1.90
2022-08-07T15:27:07.197Z,3.40
2022-08-07T15:36:02.431Z,4.50
2022-08-07T15:38:29.919Z,3.10
2022-08-07T15:41:23.969Z,2.30
2022-08-07T15:44:15.309Z,4.50
2022-08-07T15:46:51.893Z,1.60
2022-08-07T15:50:03.922Z,1.80
2022-08-07T15:52:30.186Z,7.40
2022-08-07T15:55:03.462Z,4.70
2022-08-07T15:57:40.251Z,7.60
2022-08-07T16:00:32.114Z,4.80
2022-08-07T16:03:20.848Z,2.10
2022-08-07T16:08:37.704Z,3.80
2022-08-07T16:11:26.281Z,2.60
2022-08-07T16:14:03.199Z,2.30
2022-08-07T16:16:51.236Z,4.10
2022-08-07T16:19:58.804Z,1.90
2022-08-07T16:22:55.240Z,2.80
2022-08-07T16:25:48.837Z,4.30
2022-08-07T16:30:09.137Z,2.20
2022-08-07T16:31:58.141Z,2.30
2022-08-07T16:34:37.878Z,2.70
2022-08-07T16:38:04.209Z,5.90
2022-08-07T16:40:30.613Z,3.20
2022-08-07T16:43:23.822Z,3.60
2022-08-07T16:47:09.532Z,2.10
2022-08-07T16:50:20.279Z,4.90
2022-08-07T16:52:57.482Z,1.80
2022-08-07T16:55:52.960Z,3.30
2022-08-07T16:59:11.125Z,2.20
2022-08-07T17:01:51.205Z,6.90
2022-08-07T17:04:57.630Z,3.20
2022-08-07T17:07:55.796Z,2.00
2022-08-07T17:10:38.488Z,4.50
2022-08-07T17:13:19.741Z,7.20
2022-08-07T17:16:09.737Z,7.30
2022-08-07T17:18:51.655Z,1.90
2022-08-07T17:21:27.442Z,3.20
2022-08-07T17:24:53.106Z,2.80
2022-08-07T17:27:54.446Z,2.10
2022-08-07T17:30:30.591Z,3.00
2022-08-07T17:36:13.677Z,3.50
2022-08-07T17:38:50.348Z,6.80
2022-08-07T17:42:04.282Z,3.30
2022-08-07T17:44:33.910Z,3.50
2022-08-07T17:47:42.240Z,3.30
2022-08-07T17:50:18.920Z,2.80
2022-08-07T17:53:59.873Z,3.30
2022-08-07T17:56:15.458Z,1.10
2022-08-07T17:59:03.640Z,7.40
2022-08-07T18:01:56.673Z,2.80
2022-08-07T18:04:49.408Z,2.10
2022-08-07T18:07:34.038Z,1.90
2022-08-07T18:10:33.063Z,4.80
2022-08-07T18:13:01.466Z,5.40
2022-08-07T18:15:53.674Z,1.80
2022-08-07T18:18:46.657Z,4.80
2022-08-07T18:22:00.503Z,3.80
2022-08-07T18:24:51.247Z,2.60
2022-08-07T18:27:38.945Z,4.30
2022-08-07T18:30:31.518Z,5.20
2022-08-07T18:33:15.833Z,3.60
2022-08-07T18:36:03.468Z,5.10
2022-08-07T18:38:58.087Z,5.10
2022-08-07T18:41:49.265Z,4.80
2022-08-07T18:48:04.353Z,2.10
2022-08-07T18:50:48.490Z,3.60
2022-08-07T18:53:54.354Z,3.50
2022-08-07T18:57:29.192Z,5.80
2022-08-07T18:59:58.958Z,8.10
2022-08-07T19:02:52.682Z,1.50
2022-08-07T19:06:04.049Z,5.20
2022-08-07T19:08:46.505Z,5.30
2022-08-07T19:11:36.152Z,2.90
2022-08-07T19:14:17.095Z,2.80
2022-08-07T19:17:04.536Z,4.90
2022-08-07T19:19:37.857Z,3.00
2022-08-07T19:22:18.357Z,5.00
2022-08-07T19:25:06.582Z,4.40
2022-08-07T19:28:57.820Z,4.50
2022-08-07T19:31:06.125Z,4.00
2022-08-07T19:33:33.322Z,4.50
2022-08-07T19:36:05.488Z,4.10
2022-08-07T19:38:52.683Z,6.40
2022-08-07T19:41:44.380Z,3.70
2022-08-07T19:44:21.578Z,5.90
2022-08-07T19:46:58.048Z,6.80
2022-08-07T19:49:57.192Z,6.50
2022-08-07T19:52:22.607Z,4.80
2022-08-07T19:54:55.785Z,6.40
2022-08-07T19:58:01.618Z,4.50
2022-08-07T20:00:29.175Z,5.70
2022-08-07T20:03:31.384Z,5.90
2022-08-07T20:06:05.003Z,7.80
2022-08-07T20:08:39.103Z,8.00
2022-08-07T20:11:15.181Z,8.90
2022-08-07T20:14:03.283Z,5.80
2022-08-07T20:16:37.009Z,7.40
2022-08-07T20:19:09.950Z,3.60
2022-08-07T20:21:47.627Z,6.10
2022-08-07T20:24:20.802Z,4.80
2022-08-07T20:26:52.094Z,4.20
2022-08-07T20:29:47.950Z,7.00
2022-08-07T20:32:25.460Z,4.80
2022-08-07T20:37:55.570Z,8.00
2022-08-07T20:40:33.124Z,3.90
2022-08-07T20:43:14.686Z,5.50
2022-08-07T20:46:25.699Z,6.80
2022-08-07T20:49:55.200Z,4.10
2022-08-07T20:51:35.547Z,5.70
2022-08-07T20:54:12.227Z,5.20
2022-08-07T20:56:50.060Z,5.70
2022-08-07T21:00:05.518Z,3.40
2022-08-07T21:02:39.092Z,5.10
2022-08-07T21:05:16.323Z,6.30
2022-08-07T21:07:49.957Z,5.30
2022-08-07T21:10:29.634Z,7.60
2022-08-07T21:13:03.388Z,2.90
2022-08-07T21:15:58.579Z,5.30
2022-08-07T21:18:29.835Z,4.30
2022-08-07T21:21:04.322Z,5.40
2022-08-07T21:24:11.933Z,4.70
2022-08-07T21:27:10.541Z,4.00
2022-08-07T21:29:41.798Z,9.90
2022-08-07T21:32:49.711Z,3.70
2022-08-07T21:36:04.230Z,3.10
2022-08-07T21:38:28.943Z,6.60
2022-08-07T21:41:00.267Z,4.70
2022-08-07T21:43:57.405Z,4.70
2022-08-07T21:46:33.165Z,10.70
2022-08-07T21:49:14.975Z,5.30
2022-08-07T21:52:11.737Z,4.60
2022-08-07T21:54:56.160Z,6.00
2022-08-07T21:57:45.029Z,3.50
2022-08-07T22:00:25.736Z,4.80
2022-08-07T22:03:06.155Z,2.60
2022-08-07T22:05:48.247Z,3.80
2022-08-07T22:08:25.367Z,5.90
2022-08-07T22:10:59.975Z,3.40
2022-08-07T22:13:51.182Z,5.60
2022-08-07T22:16:47.720Z,3.40
2022-08-07T22:19:43.307Z,5.10
2022-08-07T22:22:20.796Z,10.60
2022-08-07T22:25:03.269Z,3.30
2022-08-07T22:28:29.476Z,6.30
2022-08-07T22:30:54.825Z,3.00
2022-08-07T22:33:53.052Z,4.70
2022-08-07T22:36:35.201Z,3.90
2022-08-07T22:39:23.936Z,5.80
2022-08-07T22:42:19.623Z,6.30
2022-08-07T22:44:58.665Z,4.90
2022-08-07T22:47:59.380Z,4.20
2022-08-07T22:50:37.037Z,3.50
2022-08-07T22:54:05.442Z,5.50
2022-08-07T22:56:28.886Z,5.60
2022-08-07T22:59:06.809Z,3.40
2022-08-07T23:01:50.590Z,4.90
2022-08-07T23:04:58.308Z,5.50
2022-08-07T23:08:04.833Z,6.60
2022-08-07T23:10:59.640Z,3.60
2022-08-07T23:13:49.229Z,3.20
2022-08-07T23:16:46.481Z,4.50
2022-08-07T23:20:03.565Z,4.90
2022-08-07T23:22:32.686Z,3.50
2022-08-07T23:25:29.728Z,3.70
2022-08-07T23:28:29.021Z,4.20
2022-08-07T23:31:18.827Z,3.10
2022-08-07T23:34:50.335Z,5.70
2022-08-07T23:38:00.193Z,5.50
2022-08-07T23:40:49.365Z,4.20
2022-08-07T23:44:09.814Z,4.20
2022-08-07T23:46:48.706Z,5.80
2022-08-07T23:49:51.057Z,5.60
2022-08-07T23:52:59.617Z,2.80
2022-08-07T23:55:55.887Z,3.90
2022-08-07T23:58:46.432Z,3.60
